Time;durP1;ratioP1;P1;durP2;ratioP2;P2;SDS_P1;SDS_P2;PMS_P1;PMS_P2;Temp;Humidity;BMP_temperature;BMP_pressure;BME280_temperature;BME280_humidity;BME280_pressure;Samples;Min_cycle;Max_cycle;Signal;HPM_P1;HPM_P2
2022/09/16 04:00:42;;;;;;;4.80;3.87;;;15.00;99.90;;;;;;5853171;23;20993;-61
2022/09/16 04:03:09;;;;;;;8.43;4.53;;;15.00;99.90;;;;;;4957942;28;20443;-61
2022/09/16 04:05:36;;;;;;;3.90;3.60;;;15.10;99.90;;;;;;4957141;28;20938;-62
2022/09/16 04:08:03;;;;;;;4.87;4.10;;;15.10;99.90;;;;;;4957580;28;20459;-61
2022/09/16 04:10:29;;;;;;;4.20;3.80;;;15.10;99.90;;;;;;4957290;28;20490;-61
2022/09/16 04:12:58;;;;;;;4.03;3.63;;;15.10;99.90;;;;;;4957194;28;20448;-62
2022/09/16 04:15:25;;;;;;;3.93;3.53;;;15.10;99.90;;;;;;4957740;28;20518;-61
2022/09/16 04:17:55;;;;;;;7.70;3.67;;;15.20;99.90;;;;;;4958663;28;20459;-61
2022/09/16 04:20:22;;;;;;;8.23;4.30;;;15.20;99.90;;;;;;4958722;28;20480;-61
2022/09/16 04:22:49;;;;;;;5.03;3.20;;;15.20;99.90;;;;;;4959043;28;20451;-61
2022/09/16 04:25:16;;;;;;;7.53;4.20;;;15.20;99.90;;;;;;4958587;28;20869;-61
2022/09/16 04:27:42;;;;;;;8.73;4.47;;;15.20;99.90;;;;;;4957341;28;20455;-61
2022/09/16 04:30:11;;;;;;;7.57;3.93;;;15.20;99.90;;;;;;4957113;28;20504;-62
2022/09/16 04:32:37;;;;;;;6.07;3.60;;;15.30;99.90;;;;;;4957194;28;20463;-62
2022/09/16 04:35:06;;;;;;;4.53;3.87;;;15.30;99.90;;;;;;4956713;28;21025;-62
2022/09/16 04:37:33;;;;;;;4.00;3.37;;;15.30;99.90;;;;;;4956896;28;20455;-62
2022/09/16 04:39:59;;;;;;;6.37;4.80;;;15.30;99.90;;;;;;4957047;28;20461;-62
2022/09/16 04:42:26;;;;;;;4.50;4.10;;;15.30;99.90;;;;;;4956835;28;20488;-61
2022/09/16 04:44:53;;;;;;;4.53;4.13;;;15.30;99.90;;;;;;4956993;28;20455;-61
2022/09/16 04:47:19;;;;;;;6.60;5.10;;;15.30;99.90;;;;;;4957048;28;20460;-62
2022/09/16 04:49:46;;;;;;;5.20;4.20;;;15.20;99.90;;;;;;4957826;28;20460;-62
2022/09/16 04:52:15;;;;;;;5.67;4.07;;;15.20;99.90;;;;;;4957233;28;20480;-62
2022/09/16 04:54:41;;;;;;;5.97;3.80;;;15.20;99.90;;;;;;4956627;28;20518;-62
2022/09/16 04:57:08;;;;;;;5.73;5.10;;;15.20;99.90;;;;;;4956480;28;20452;-62
2022/09/16 04:59:35;;;;;;;4.57;4.10;;;15.20;99.90;;;;;;4956730;28;20515;-62
2022/09/16 05:02:01;;;;;;;5.70;5.03;;;15.20;99.90;;;;;;4956820;28;20558;-61
2022/09/16 05:04:28;;;;;;;5.00;4.10;;;15.20;99.90;;;;;;4957419;28;20477;-62
2022/09/16 05:06:55;;;;;;;4.90;4.10;;;15.20;99.90;;;;;;4956991;28;20455;-62
2022/09/16 05:09:23;;;;;;;4.93;4.53;;;15.20;99.90;;;;;;4956936;28;20820;-62
2022/09/16 05:11:49;;;;;;;5.43;4.90;;;15.20;99.90;;;;;;4956813;28;20476;-62
2022/09/16 05:14:18;;;;;;;5.80;5.30;;;15.20;99.90;;;;;;4956742;28;20459;-62
2022/09/16 05:16:45;;;;;;;6.50;4.97;;;15.20;99.90;;;;;;4956814;28;20460;-62
2022/09/16 05:19:13;;;;;;;5.23;4.93;;;15.20;99.90;;;;;;4956815;28;20455;-62
2022/09/16 05:21:40;;;;;;;5.23;4.63;;;15.20;99.90;;;;;;4956996;28;20487;-64
2022/09/16 05:24:09;;;;;;;9.33;5.23;;;15.20;99.90;;;;;;4956797;28;20459;-64
2022/09/16 05:26:39;;;;;;;5.03;4.60;;;15.20;99.90;;;;;;4956109;28;20958;-63
2022/09/16 05:29:07;;;;;;;5.20;4.70;;;15.30;99.90;;;;;;4956470;28;20444;-62
2022/09/16 05:31:36;;;;;;;4.90;4.50;;;15.30;99.90;;;;;;4956020;29;20471;-62
2022/09/16 05:34:05;;;;;;;5.37;4.90;;;15.40;99.90;;;;;;4956416;28;20487;-62
2022/09/16 05:36:33;;;;;;;7.53;5.10;;;15.40;99.90;;;;;;4956987;28;20966;-63
2022/09/16 05:39:00;;;;;;;7.40;4.70;;;15.40;99.90;;;;;;4955965;28;20452;-62
2022/09/16 05:41:27;;;;;;;8.43;5.13;;;15.40;99.90;;;;;;4956686;29;20514;-63
2022/09/16 05:43:58;;;;;;;5.73;4.37;;;15.40;99.90;;;;;;4956690;28;20466;-62
2022/09/16 05:46:25;;;;;;;5.70;4.53;;;15.40;99.90;;;;;;4957309;28;20538;-63
2022/09/16 05:48:52;;;;;;;6.90;4.37;;;15.40;99.90;;;;;;4957605;28;20455;-61
2022/09/16 05:51:21;;;;;;;5.63;5.13;;;15.50;99.90;;;;;;4957556;28;20471;-63
2022/09/16 05:53:49;;;;;;;5.27;4.97;;;15.40;99.90;;;;;;4957880;28;20519;-63
2022/09/16 05:56:18;;;;;;;5.67;4.60;;;15.30;99.90;;;;;;4956920;28;20538;-62
2022/09/16 05:58:45;;;;;;;8.00;4.90;;;15.30;99.90;;;;;;4957675;28;20514;-62
2022/09/16 06:01:15;;;;;;;13.20;5.20;;;15.30;99.90;;;;;;4956692;28;20993;-62
2022/09/16 06:03:43;;;;;;;7.00;5.07;;;15.20;99.90;;;;;;4957348;28;20511;-63
2022/09/16 06:06:14;;;;;;;12.50;5.10;;;15.20;99.90;;;;;;4956382;28;20456;-62
2022/09/16 06:08:41;;;;;;;5.83;4.33;;;15.10;99.90;;;;;;4957078;28;20444;-63
2022/09/16 06:11:09;;;;;;;5.33;4.80;;;15.10;99.90;;;;;;4956554;28;20475;-62
2022/09/16 06:13:37;;;;;;;6.20;4.73;;;15.10;99.90;;;;;;4956520;28;20550;-63
2022/09/16 06:16:05;;;;;;;5.60;4.37;;;15.20;99.90;;;;;;4956125;28;20506;-63
2022/09/16 06:18:34;;;;;;;4.53;4.13;;;15.20;99.90;;;;;;4957253;28;20455;-63
2022/09/16 06:21:04;;;;;;;6.10;4.93;;;15.20;99.90;;;;;;4956325;28;20982;-63
2022/09/16 06:23:31;;;;;;;4.53;4.00;;;15.20;99.90;;;;;;4956623;28;20802;-64
2022/09/16 06:26:02;;;;;;;5.63;4.10;;;15.20;99.90;;;;;;4956233;28;20459;-63
2022/09/16 06:28:29;;;;;;;5.60;4.00;;;15.20;99.90;;;;;;4956296;28;20993;-64
2022/09/16 06:31:04;;;;;;;5.80;4.37;;;15.10;99.90;;;;;;4956573;28;20486;-62
2022/09/16 06:33:32;;;;;;;4.17;3.60;;;15.10;99.90;;;;;;4956044;28;20458;-63
2022/09/16 06:36:03;;;;;;;6.67;4.73;;;15.00;99.90;;;;;;4956092;28;20516;-62
2022/09/16 06:38:30;;;;;;;7.37;4.67;;;14.80;99.90;;;;;;4955814;28;20447;-63
2022/09/16 06:40:59;;;;;;;6.47;4.10;;;14.70;99.90;;;;;;4955917;28;20475;-62
2022/09/16 06:43:26;;;;;;;5.77;4.10;;;14.70;99.90;;;;;;4956099;28;20539;-62
2022/09/16 06:45:57;;;;;;;5.40;4.53;;;14.60;99.90;;;;;;4956067;28;20865;-62
2022/09/16 06:48:23;;;;;;;10.10;5.23;;;14.60;99.90;;;;;;4956066;28;20447;-65
2022/09/16 06:50:59;;;;;;;8.70;5.10;;;14.60;99.90;;;;;;4957429;28;20479;-64
2022/09/16 06:53:26;;;;;;;6.13;5.53;;;14.50;99.90;;;;;;4959040;28;20444;-64
2022/09/16 06:55:52;;;;;;;6.20;5.40;;;14.50;99.90;;;;;;4959080;28;20542;-64
2022/09/16 06:58:19;;;;;;;6.20;5.10;;;14.40;99.90;;;;;;4959131;28;20455;-64
2022/09/16 07:00:46;;;;;;;5.40;4.83;;;14.40;99.90;;;;;;4958694;28;20943;-64
2022/09/16 07:03:12;;;;;;;5.53;5.03;;;14.30;99.90;;;;;;4958812;28;20483;-65
2022/09/16 07:05:39;;;;;;;6.60;4.90;;;14.30;99.90;;;;;;4958797;28;20476;-64
2022/09/16 07:08:07;;;;;;;8.50;5.20;;;14.20;99.90;;;;;;4958398;28;20462;-63
2022/09/16 07:10:34;;;;;;;7.57;5.17;;;14.20;99.90;;;;;;4958270;28;21042;-64
2022/09/16 07:13:00;;;;;;;8.57;5.40;;;14.20;99.90;;;;;;4958545;28;20459;-64
2022/09/16 07:15:27;;;;;;;9.50;6.20;;;14.30;99.90;;;;;;4958634;28;20506;-63
2022/09/16 07:17:54;;;;;;;6.57;5.97;;;14.30;99.90;;;;;;4958219;28;20951;-64
2022/09/16 07:20:21;;;;;;;8.67;6.37;;;14.30;99.90;;;;;;4959063;28;20463;-62
2022/09/16 07:22:49;;;;;;;8.47;5.83;;;14.20;99.90;;;;;;4958466;28;20482;-61
2022/09/16 07:25:17;;;;;;;6.23;5.63;;;14.20;99.90;;;;;;4958480;28;20459;-62
2022/09/16 07:27:44;;;;;;;7.27;6.17;;;14.20;99.90;;;;;;4958618;28;20456;-62
2022/09/16 07:30:11;;;;;;;7.27;6.57;;;14.30;99.90;;;;;;4958678;28;20456;-61
2022/09/16 07:32:38;;;;;;;7.90;7.20;;;14.30;99.90;;;;;;4958303;28;20596;-62
2022/09/16 07:35:05;;;;;;;9.20;6.40;;;14.20;99.90;;;;;;4958338;28;20474;-61
2022/09/16 07:37:34;;;;;;;7.07;6.37;;;14.20;99.90;;;;;;4958589;28;20978;-61
2022/09/16 07:40:01;;;;;;;7.10;6.40;;;14.20;99.90;;;;;;4959614;28;20538;-62
2022/09/16 07:42:30;;;;;;;8.00;7.00;;;14.20;99.90;;;;;;4958589;28;20542;-62
2022/09/16 07:44:57;;;;;;;8.03;6.40;;;14.20;99.90;;;;;;4958728;28;20514;-62
2022/09/16 07:47:23;;;;;;;8.10;6.30;;;14.20;99.90;;;;;;4957834;28;21002;-62
2022/09/16 07:49:54;;;;;;;6.40;5.80;;;14.30;99.90;;;;;;4958041;28;20451;-62
2022/09/16 07:52:22;;;;;;;6.80;6.20;;;14.30;99.90;;;;;;4958147;28;20522;-62
2022/09/16 07:54:49;;;;;;;6.60;5.23;;;14.40;99.90;;;;;;4958056;28;20456;-62
2022/09/16 07:57:16;;;;;;;6.07;5.53;;;14.40;99.90;;;;;;4957996;28;20455;-62
2022/09/16 07:59:44;;;;;;;6.80;6.17;;;14.40;99.90;;;;;;4957839;28;20546;-62
2022/09/16 08:02:10;;;;;;;6.30;5.73;;;14.50;99.90;;;;;;4956932;28;20534;-62
2022/09/16 08:04:37;;;;;;;6.10;5.70;;;14.50;99.90;;;;;;4957708;28;20468;-62
2022/09/16 08:07:04;;;;;;;7.60;5.27;;;14.60;99.90;;;;;;4957609;28;20463;-62
2022/09/16 08:09:31;;;;;;;7.50;6.80;;;14.70;99.90;;;;;;4957769;28;20526;-62
2022/09/16 08:11:58;;;;;;;6.30;5.73;;;14.70;99.90;;;;;;4957578;28;20501;-61
2022/09/16 08:14:25;;;;;;;6.70;6.10;;;14.70;99.90;;;;;;4957898;28;20456;-61
2022/09/16 08:16:53;;;;;;;6.37;5.87;;;14.80;99.90;;;;;;4958512;28;20459;-62
2022/09/16 08:19:21;;;;;;;7.27;5.37;;;14.90;99.90;;;;;;4957369;28;20455;-61
2022/09/16 08:21:48;;;;;;;6.10;5.70;;;15.00;99.90;;;;;;4957526;28;20480;-62
2022/09/16 08:24:15;;;;;;;7.00;6.53;;;15.00;99.90;;;;;;4958138;28;20455;-62
2022/09/16 08:26:42;;;;;;;7.37;6.77;;;15.10;99.90;;;;;;4957733;28;20514;-62
2022/09/16 08:29:08;;;;;;;7.63;6.93;;;15.10;99.90;;;;;;4957206;28;20515;-61
2022/09/16 08:31:35;;;;;;;6.80;6.13;;;15.10;99.90;;;;;;4957095;28;20892;-61
2022/09/16 08:34:03;;;;;;;7.37;6.60;;;15.20;99.90;;;;;;4956798;28;20939;-61
2022/09/16 08:36:32;;;;;;;5.80;5.30;;;15.20;99.90;;;;;;4957064;28;20460;-61
2022/09/16 08:38:58;;;;;;;8.93;6.00;;;15.30;99.90;;;;;;4957086;28;20456;-61
2022/09/16 08:41:36;;;;;;;5.80;5.40;;;15.20;99.90;;;;;;4957032;28;20500;-62
2022/09/16 08:44:10;;;;;;;5.90;5.30;;;15.20;99.90;;;;;;4957274;28;20496;-61
2022/09/16 08:46:51;;;;;;;4.93;4.57;;;15.30;99.90;;;;;;4959172;28;20447;-62
2022/09/16 08:49:32;;;;;;;5.73;5.23;;;15.30;99.90;;;;;;4958465;28;20498;-63
2022/09/16 08:52:02;;;;;;;5.07;4.57;;;15.30;99.90;;;;;;4958873;28;20471;-62
2022/09/16 08:54:35;;;;;;;5.03;4.63;;;15.40;99.90;;;;;;4958659;28;20440;-62
2022/09/16 08:57:04;;;;;;;6.30;5.70;;;15.50;99.90;;;;;;4958209;28;20907;-62
2022/09/16 08:59:36;;;;;;;5.80;5.20;;;15.50;99.90;;;;;;4957976;28;20455;-62
2022/09/16 09:02:27;;;;;;;5.90;5.30;;;15.60;99.90;;;;;;4957725;28;20578;-62
2022/09/16 09:04:55;;;;;;;7.70;4.80;;;15.70;99.90;;;;;;4957870;28;20960;-62
2022/09/16 09:07:32;;;;;;;5.93;4.87;;;15.80;99.90;;;;;;4957940;28;20995;-61
2022/09/16 09:10:13;;;;;;;5.23;4.83;;;15.80;99.90;;;;;;4957687;28;20431;-61
2022/09/16 09:12:45;;;;;;;5.00;4.60;;;15.80;99.90;;;;;;4957259;28;20440;-62
2022/09/16 09:15:25;;;;;;;4.93;4.50;;;15.90;99.90;;;;;;4957467;28;20471;-61
2022/09/16 09:18:03;;;;;;;10.37;5.20;;;16.00;99.90;;;;;;4957058;28;20444;-62
2022/09/16 09:20:44;;;;;;;4.97;4.57;;;16.00;99.90;;;;;;4956787;28;20494;-62
2022/09/16 09:23:31;;;;;;;5.10;4.30;;;16.10;99.90;;;;;;4957972;28;20463;-61
2022/09/16 09:26:02;;;;;;;5.17;4.70;;;16.10;99.90;;;;;;4960658;28;20440;-62
2022/09/16 09:29:02;;;;;;;5.50;5.00;;;16.00;99.90;;;;;;4960742;28;20444;-62
2022/09/16 09:31:39;;;;;;;6.00;4.90;;;16.00;99.90;;;;;;4958970;28;20515;-62
2022/09/16 09:34:19;;;;;;;5.77;5.13;;;15.80;99.90;;;;;;4960665;28;20470;-62
2022/09/16 09:37:00;;;;;;;5.73;4.80;;;15.80;99.90;;;;;;4960461;28;20439;-63
2022/09/16 09:39:42;;;;;;;5.83;5.30;;;15.80;99.90;;;;;;4960403;28;20443;-63
2022/09/16 09:42:15;;;;;;;5.50;5.10;;;15.90;99.90;;;;;;4958703;28;20483;-62
2022/09/16 09:44:55;;;;;;;5.90;5.20;;;16.00;99.90;;;;;;4956699;28;20503;-62
2022/09/16 09:47:25;;;;;;;5.17;4.67;;;16.00;99.90;;;;;;4956243;28;20444;-62
2022/09/16 09:49:56;;;;;;;6.63;5.43;;;16.10;99.90;;;;;;4956156;28;20451;-62
2022/09/16 09:52:30;;;;;;;4.87;4.57;;;16.20;99.90;;;;;;4955973;28;20475;-62
2022/09/16 09:55:04;;;;;;;7.53;5.73;;;16.20;99.90;;;;;;4956851;28;20440;-63
2022/09/16 09:57:37;;;;;;;6.10;5.50;;;16.40;99.90;;;;;;4956289;28;20435;-62
2022/09/16 10:00:11;;;;;;;6.23;5.67;;;16.50;99.90;;;;;;4956063;28;20547;-62
2022/09/16 10:02:40;;;;;;;5.40;4.90;;;16.50;99.90;;;;;;4955944;28;20505;-62
2022/09/16 10:05:13;;;;;;;5.83;4.63;;;16.60;99.90;;;;;;4955984;28;20490;-62
2022/09/16 10:07:41;;;;;;;5.37;4.90;;;16.70;99.90;;;;;;4956349;28;20439;-62
2022/09/16 10:10:15;;;;;;;5.20;4.80;;;16.60;99.90;;;;;;4956100;28;20451;-67
2022/09/16 10:12:42;;;;;;;5.60;5.20;;;16.50;99.90;;;;;;4956073;28;20435;-63
2022/09/16 10:15:20;;;;;;;5.77;5.27;;;16.50;99.90;;;;;;4956002;28;20462;-62
2022/09/16 10:17:49;;;;;;;6.10;5.50;;;16.40;99.90;;;;;;4955704;28;20829;-62
2022/09/16 10:20:26;;;;;;;6.60;5.20;;;16.40;99.90;;;;;;4955455;28;20954;-62
2022/09/16 10:22:58;;;;;;;5.63;4.70;;;16.40;99.90;;;;;;4956256;28;20463;-62
2022/09/16 10:25:25;;;;;;;6.03;5.07;;;16.40;99.90;;;;;;4958690;28;20436;-62
2022/09/16 10:27:57;;;;;;;6.83;5.30;;;16.30;99.90;;;;;;4959138;28;21018;-62
2022/09/16 10:30:24;;;;;;;5.83;5.30;;;16.30;99.90;;;;;;4959767;28;20487;-62
2022/09/16 10:32:54;;;;;;;6.60;4.30;;;16.20;99.90;;;;;;4959885;28;20884;-62
2022/09/16 10:35:24;;;;;;;6.37;5.03;;;16.20;99.90;;;;;;4960006;28;20451;-62
2022/09/16 10:37:54;;;;;;;5.70;5.00;;;16.20;99.90;;;;;;4959718;28;20443;-62
2022/09/16 10:40:23;;;;;;;6.50;5.20;;;16.20;99.90;;;;;;4959362;28;20473;-62
2022/09/16 10:42:52;;;;;;;5.53;4.97;;;16.10;99.90;;;;;;4959220;28;20475;-62
2022/09/16 10:45:25;;;;;;;4.73;4.33;;;16.10;99.90;;;;;;4959332;28;20451;-62
2022/09/16 10:47:54;;;;;;;4.70;4.20;;;16.00;99.90;;;;;;4958807;28;20876;-62
2022/09/16 10:50:22;;;;;;;5.03;4.53;;;16.00;99.90;;;;;;4959406;28;20513;-62
2022/09/16 10:52:49;;;;;;;5.77;5.23;;;16.10;99.90;;;;;;4959362;28;20510;-62
2022/09/16 10:55:31;;;;;;;4.80;4.10;;;16.00;99.90;;;;;;4959109;28;20455;-65
2022/09/16 10:58:08;;;;;;;5.00;4.57;;;16.10;99.90;;;;;;4959119;28;20445;-62
2022/09/16 11:00:44;;;;;;;5.17;4.60;;;16.20;99.90;;;;;;4958986;28;20527;-62
2022/09/16 11:03:37;;;;;;;4.53;4.23;;;16.20;99.90;;;;;;4958544;28;20977;-61
2022/09/16 11:06:18;;;;;;;5.30;4.80;;;16.20;99.90;;;;;;4958813;28;20494;-62
2022/09/16 11:08:57;;;;;;;6.20;5.03;;;16.20;99.90;;;;;;4958629;28;20448;-61
2022/09/16 11:11:50;;;;;;;5.97;5.27;;;16.30;99.90;;;;;;4958590;28;20480;-61
2022/09/16 11:14:29;;;;;;;5.60;4.67;;;16.30;99.90;;;;;;4958546;28;20440;-61
2022/09/16 11:17:18;;;;;;;5.33;4.70;;;16.30;99.90;;;;;;4958571;28;20456;-61
2022/09/16 11:19:56;;;;;;;8.70;5.07;;;16.30;99.90;;;;;;4958499;28;20444;-61
2022/09/16 11:22:31;;;;;;;4.97;4.50;;;16.30;99.90;;;;;;4958246;28;20479;-61
2022/09/16 11:25:21;;;;;;;8.83;5.40;;;16.30;99.90;;;;;;4958220;28;20978;-61
2022/09/16 11:28:00;;;;;;;4.27;3.93;;;16.20;99.90;;;;;;4955865;28;20881;-61
2022/09/16 11:30:34;;;;;;;4.30;4.00;;;16.20;99.90;;;;;;4958736;28;20491;-61
2022/09/16 11:33:21;;;;;;;6.20;4.50;;;16.20;99.90;;;;;;4958786;28;20440;-61
2022/09/16 11:36:08;;;;;;;3.73;3.43;;;16.20;99.90;;;;;;4957625;28;20440;-61
2022/09/16 11:38:43;;;;;;;8.67;4.33;;;16.30;99.90;;;;;;4957752;28;20501;-62
2022/09/16 11:41:16;;;;;;;5.00;3.30;;;16.30;99.90;;;;;;4958022;28;20479;-61
2022/09/16 11:44:14;;;;;;;5.93;3.53;;;16.30;99.90;;;;;;4957977;28;20827;-60
2022/09/16 11:46:51;;;;;;;5.87;3.73;;;16.30;99.90;;;;;;4958594;28;20440;-61
2022/09/16 11:49:33;;;;;;;3.83;3.43;;;16.30;99.90;;;;;;4957815;28;20933;-61
2022/09/16 11:52:12;;;;;;;4.00;3.70;;;16.40;99.90;;;;;;4958105;28;20476;-61
2022/09/16 11:55:05;;;;;;;6.23;3.47;;;16.40;99.90;;;;;;4958011;28;20439;-61
2022/09/16 11:57:37;;;;;;;3.90;3.17;;;16.50;99.90;;;;;;4958020;28;20444;-61
2022/09/16 12:00:11;;;;;;;4.43;2.40;;;16.50;99.90;;;;;;4958657;28;20440;-61
2022/09/16 12:02:42;;;;;;;3.53;2.80;;;16.60;99.90;;;;;;4957395;28;20491;-61
2022/09/16 12:05:19;;;;;;;4.47;2.60;;;16.70;99.90;;;;;;4957591;28;20448;-61
2022/09/16 12:07:52;;;;;;;2.80;2.47;;;16.80;99.90;;;;;;4957800;28;20879;-61
2022/09/16 12:10:23;;;;;;;2.93;2.73;;;17.00;99.90;;;;;;4957312;28;20810;-61
2022/09/16 12:12:53;;;;;;;6.30;2.70;;;17.50;99.90;;;;;;4957576;28;20792;-62
2022/09/16 12:15:25;;;;;;;5.00;2.30;;;17.90;99.90;;;;;;4957641;28;20526;-61
2022/09/16 12:17:55;;;;;;;7.33;2.20;;;18.10;99.90;;;;;;4957661;28;20547;-61
2022/09/16 12:20:25;;;;;;;4.17;2.60;;;18.20;99.90;;;;;;4957482;28;20459;-62
2022/09/16 12:23:00;;;;;;;2.63;2.33;;;18.20;99.90;;;;;;4958873;28;20817;-61
2022/09/16 12:25:33;;;;;;;2.80;2.30;;;18.30;99.90;;;;;;4958559;28;20447;-61
2022/09/16 12:28:05;;;;;;;4.13;2.30;;;18.30;99.90;;;;;;4957500;28;20908;-62
2022/09/16 12:30:38;;;;;;;2.47;2.20;;;18.50;99.90;;;;;;4957605;28;20811;-62
2022/09/16 12:33:12;;;;;;;3.80;2.27;;;18.80;99.90;;;;;;4957494;28;20487;-62
2022/09/16 12:35:42;;;;;;;5.27;2.37;;;19.30;99.90;;;;;;4957830;28;20479;-62
2022/09/16 12:38:15;;;;;;;5.57;2.57;;;19.80;99.90;;;;;;4957261;28;20483;-62
2022/09/16 12:41:06;;;;;;;2.77;2.50;;;20.00;99.90;;;;;;4957000;28;20481;-62
2022/09/16 12:43:55;;;;;;;2.30;1.80;;;20.30;99.90;;;;;;4956653;28;20483;-62
2022/09/16 12:46:54;;;;;;;2.57;2.23;;;20.60;99.90;;;;;;4956994;28;20482;-62
2022/09/16 12:49:42;;;;;;;1.73;1.63;;;20.80;99.90;;;;;;4936041;28;20458;-62
2022/09/16 12:52:31;;;;;;;7.73;2.07;;;20.70;99.90;;;;;;4956681;28;20471;-63
2022/09/16 12:55:26;;;;;;;2.23;1.63;;;20.60;99.90;;;;;;4956589;28;20490;-61
2022/09/16 12:58:19;;;;;;;2.43;1.97;;;20.70;99.90;;;;;;4957367;28;20439;-62
2022/09/16 13:00:58;;;;;;;3.73;1.73;;;20.90;99.90;;;;;;4956190;28;20484;-62
2022/09/16 13:03:30;;;;;;;2.53;1.67;;;20.90;99.90;;;;;;4956184;28;20471;-62
2022/09/16 13:05:59;;;;;;;3.13;1.90;;;20.90;99.90;;;;;;4956360;28;20499;-62
2022/09/16 13:08:30;;;;;;;3.10;1.60;;;21.10;99.90;;;;;;4956682;28;20503;-62
2022/09/16 13:10:59;;;;;;;2.33;2.00;;;21.20;99.60;;;;;;4957431;28;20534;-62
2022/09/16 13:13:32;;;;;;;3.07;1.67;;;21.20;98.70;;;;;;4956699;28;20451;-62
2022/09/16 13:16:01;;;;;;;4.10;1.77;;;21.30;99.90;;;;;;4956427;28;20527;-61
2022/09/16 13:18:42;;;;;;;6.13;2.10;;;21.10;99.20;;;;;;4956429;28;20460;-61
2022/09/16 13:21:21;;;;;;;1.80;1.70;;;21.00;98.50;;;;;;4956470;28;20475;-61
2022/09/16 13:23:56;;;;;;;3.07;1.97;;;20.90;99.90;;;;;;4955916;28;20503;-61
2022/09/16 13:26:23;;;;;;;3.07;2.00;;;21.00;99.90;;;;;;4956629;28;20443;-62
2022/09/16 13:28:50;;;;;;;3.93;2.20;;;21.20;99.90;;;;;;4955972;28;20876;-61
2022/09/16 13:31:19;;;;;;;2.57;2.00;;;21.30;99.90;;;;;;4956241;28;20479;-62
2022/09/16 13:33:48;;;;;;;2.47;1.87;;;21.40;99.90;;;;;;4956099;28;20826;-62
2022/09/16 13:36:32;;;;;;;4.67;1.87;;;21.40;99.90;;;;;;4956236;28;20542;-62
2022/09/16 13:39:00;;;;;;;3.30;2.40;;;21.30;99.90;;;;;;4953826;28;20982;-62
2022/09/16 13:41:33;;;;;;;1.93;1.73;;;21.40;99.90;;;;;;4955958;28;20481;-62
2022/09/16 13:44:00;;;;;;;3.57;2.10;;;21.30;99.90;;;;;;4955939;28;20475;-62
2022/09/16 13:46:33;;;;;;;3.80;2.30;;;21.10;99.40;;;;;;4955714;28;20514;-61
2022/09/16 13:49:12;;;;;;;2.37;2.17;;;21.00;99.90;;;;;;4955804;28;20785;-62
2022/09/16 13:51:43;;;;;;;2.50;1.90;;;21.00;99.90;;;;;;4956060;28;20498;-61
2022/09/16 13:54:22;;;;;;;3.60;2.30;;;20.80;99.90;;;;;;4955746;28;20882;-61
2022/09/16 13:57:01;;;;;;;2.37;2.17;;;20.50;99.90;;;;;;4955920;28;20439;-61
2022/09/16 13:59:40;;;;;;;4.63;2.30;;;20.40;99.90;;;;;;4957319;28;20447;-61
2022/09/16 14:02:16;;;;;;;6.27;2.23;;;20.30;99.90;;;;;;4959468;28;20986;-61
2022/09/16 14:05:18;;;;;;;2.10;2.00;;;20.10;99.90;;;;;;4960364;28;20467;-61
2022/09/16 14:07:51;;;;;;;3.67;1.90;;;20.00;99.90;;;;;;4959832;28;20506;-61
2022/09/16 14:10:24;;;;;;;1.90;1.80;;;19.90;99.90;;;;;;4959889;28;20447;-61
2022/09/16 14:12:59;;;;;;;2.90;2.20;;;19.90;99.90;;;;;;4959956;28;20499;-61
2022/09/16 14:15:27;;;;;;;2.93;2.10;;;20.00;99.90;;;;;;4959680;28;20494;-61
2022/09/16 14:18:00;;;;;;;7.43;1.90;;;20.20;99.90;;;;;;4959872;28;20451;-61
2022/09/16 14:20:28;;;;;;;5.60;2.70;;;20.40;99.90;;;;;;4959863;28;20436;-62
2022/09/16 14:23:03;;;;;;;2.40;2.17;;;20.60;99.90;;;;;;4959285;28;20462;-62
2022/09/16 14:25:33;;;;;;;5.07;2.20;;;20.80;99.90;;;;;;4959096;28;20478;-62
2022/09/16 14:28:24;;;;;;;3.40;2.00;;;20.80;99.90;;;;;;4959459;28;20470;-63
2022/09/16 14:30:55;;;;;;;4.23;2.07;;;20.90;99.90;;;;;;4945055;28;20479;-62
2022/09/16 14:33:27;;;;;;;2.20;1.77;;;20.90;99.90;;;;;;4959247;28;20439;-62
2022/09/16 14:35:56;;;;;;;1.97;1.87;;;20.80;99.90;;;;;;4959503;28;20494;-62
2022/09/16 14:38:31;;;;;;;3.37;2.00;;;20.60;99.90;;;;;;4959479;28;20466;-62
2022/09/16 14:40:58;;;;;;;3.20;1.70;;;20.90;99.90;;;;;;4959219;28;20478;-62
2022/09/16 14:43:25;;;;;;;2.00;1.90;;;21.10;99.90;;;;;;4959213;28;20459;-62
2022/09/16 14:45:56;;;;;;;5.00;1.90;;;21.20;99.90;;;;;;4959093;28;20455;-62
2022/09/16 14:48:32;;;;;;;2.23;2.13;;;21.30;99.90;;;;;;4958798;28;20462;-62
2022/09/16 14:51:01;;;;;;;2.70;1.90;;;21.30;99.90;;;;;;4958784;28;20880;-62
2022/09/16 14:53:30;;;;;;;3.57;2.17;;;21.10;98.20;;;;;;4958643;28;20824;-62
2022/09/16 14:55:57;;;;;;;4.37;1.97;;;20.90;97.80;;;;;;4960359;28;20455;-62
2022/09/16 14:58:27;;;;;;;3.43;1.70;;;20.70;99.00;;;;;;4962607;28;20463;-62
2022/09/16 15:00:58;;;;;;;5.17;2.20;;;20.40;98.40;;;;;;4961021;28;20562;-61
2022/09/16 15:03:31;;;;;;;4.47;1.90;;;19.90;99.00;;;;;;4961109;28;20439;-62
2022/09/16 15:06:03;;;;;;;4.03;2.43;;;19.70;99.90;;;;;;4959459;28;20451;-62
2022/09/16 15:08:33;;;;;;;3.10;1.87;;;19.50;99.90;;;;;;4959310;28;20926;-61
2022/09/16 15:11:03;;;;;;;2.73;2.37;;;19.30;99.90;;;;;;4957631;28;20534;-62
2022/09/16 15:13:35;;;;;;;3.70;2.33;;;19.10;99.90;;;;;;4958709;28;20531;-62
2022/09/16 15:16:10;;;;;;;2.73;2.03;;;18.90;99.90;;;;;;4958308;28;20950;-62
2022/09/16 15:18:38;;;;;;;2.53;2.00;;;18.80;99.90;;;;;;4958655;28;20436;-61
2022/09/16 15:21:11;;;;;;;2.60;2.13;;;18.70;99.90;;;;;;4959105;28;20471;-62
2022/09/16 15:23:39;;;;;;;3.43;1.90;;;18.70;99.90;;;;;;4959167;28;20436;-62
2022/09/16 15:26:13;;;;;;;3.37;1.77;;;18.70;99.90;;;;;;4958371;28;20955;-62
2022/09/16 15:28:53;;;;;;;4.80;2.30;;;18.60;99.90;;;;;;4959699;28;20955;-62
2022/09/16 15:31:35;;;;;;;2.43;2.23;;;18.60;99.90;;;;;;4959319;28;20706;-62
2022/09/16 15:34:05;;;;;;;6.60;2.20;;;18.50;99.90;;;;;;4960667;28;20443;-62
2022/09/16 15:36:38;;;;;;;3.43;2.40;;;18.50;99.90;;;;;;4960454;28;20483;-60
2022/09/16 15:39:20;;;;;;;4.50;2.50;;;18.40;99.90;;;;;;4959476;28;20432;-60
2022/09/16 15:41:47;;;;;;;3.87;2.60;;;18.40;99.90;;;;;;4959996;28;20471;-61
2022/09/16 15:44:19;;;;;;;4.93;2.13;;;18.30;99.90;;;;;;4958960;28;20477;-61
2022/09/16 15:46:46;;;;;;;3.97;2.20;;;18.20;99.90;;;;;;4960024;28;20510;-61
2022/09/16 15:49:14;;;;;;;5.57;2.53;;;18.30;99.90;;;;;;4958897;28;20779;-61
2022/09/16 15:51:47;;;;;;;2.40;2.20;;;18.30;99.90;;;;;;4958838;28;20543;-61
2022/09/16 15:54:19;;;;;;;2.50;1.97;;;18.30;99.90;;;;;;4958771;28;20535;-61
2022/09/16 15:56:56;;;;;;;4.57;2.60;;;18.30;99.90;;;;;;4958990;28;20444;-61
2022/09/16 15:59:29;;;;;;;3.93;2.03;;;18.30;99.90;;;;;;4959045;28;20447;-62
2022/09/16 16:01:59;;;;;;;2.83;2.17;;;18.20;99.90;;;;;;4958356;28;20566;-62
2022/09/16 16:04:29;;;;;;;3.90;1.83;;;18.20;99.90;;;;;;4958223;28;20474;-62
2022/09/16 16:06:58;;;;;;;8.27;2.40;;;18.20;99.90;;;;;;4958142;28;20451;-62
2022/09/16 16:09:40;;;;;;;2.93;2.13;;;18.20;99.90;;;;;;4958011;28;20467;-62
2022/09/16 16:12:09;;;;;;;2.20;2.10;;;18.10;99.90;;;;;;4958368;28;20475;-62
2022/09/16 16:14:38;;;;;;;6.60;2.00;;;17.90;99.90;;;;;;4958387;28;20612;-62
2022/09/16 16:17:07;;;;;;;2.93;1.70;;;17.80;99.90;;;;;;4958470;28;20455;-63
2022/09/16 16:19:35;;;;;;;3.23;1.60;;;17.70;99.90;;;;;;4957706;28;21014;-61
2022/09/16 16:22:03;;;;;;;1.70;1.60;;;17.60;99.90;;;;;;4957261;28;20476;-61
2022/09/16 16:24:30;;;;;;;2.33;1.70;;;17.60;99.90;;;;;;4957205;28;20542;-61
2022/09/16 16:26:57;;;;;;;1.87;1.77;;;17.60;99.90;;;;;;4957167;28;20459;-61
2022/09/16 16:29:24;;;;;;;2.03;1.77;;;17.60;99.90;;;;;;4956702;28;20849;-62
2022/09/16 16:32:00;;;;;;;2.00;1.70;;;17.60;99.90;;;;;;4956861;28;20463;-62
2022/09/16 16:34:26;;;;;;;3.57;1.77;;;17.50;99.90;;;;;;4957404;28;20457;-62
2022/09/16 16:36:53;;;;;;;1.77;1.53;;;17.40;99.90;;;;;;4957264;28;20456;-62
2022/09/16 16:39:23;;;;;;;1.93;1.73;;;17.40;99.90;;;;;;4956882;28;20455;-62
2022/09/16 16:41:50;;;;;;;2.60;1.77;;;17.20;99.90;;;;;;4956761;28;20476;-62
2022/09/16 16:44:16;;;;;;;2.90;1.60;;;17.20;99.90;;;;;;4957064;28;20490;-62
2022/09/16 16:46:43;;;;;;;3.27;2.17;;;17.10;99.90;;;;;;4957919;28;20511;-61
2022/09/16 16:49:10;;;;;;;3.17;2.03;;;17.00;99.90;;;;;;4956678;28;20456;-61
2022/09/16 16:51:36;;;;;;;3.87;1.70;;;16.90;99.90;;;;;;4956638;28;20476;-61
2022/09/16 16:54:03;;;;;;;4.27;1.50;;;16.90;99.90;;;;;;4957997;28;20455;-61
2022/09/16 16:56:31;;;;;;;3.40;1.60;;;16.80;99.90;;;;;;4956451;28;20460;-63
2022/09/16 16:58:58;;;;;;;4.20;1.43;;;16.70;99.90;;;;;;4956439;28;20459;-63
2022/09/16 17:01:26;;;;;;;1.80;1.70;;;16.60;99.90;;;;;;4956323;28;20488;-63
2022/09/16 17:03:53;;;;;;;2.63;1.50;;;16.60;99.90;;;;;;4956385;28;20451;-63
2022/09/16 17:06:20;;;;;;;2.67;1.50;;;16.60;99.90;;;;;;4956469;28;20483;-64
2022/09/16 17:08:46;;;;;;;3.13;1.77;;;16.50;99.90;;;;;;4957035;28;20451;-64